Time;durP1;ratioP1;P1;durP2;ratioP2;P2;SDS_P1;SDS_P2;PMS_P1;PMS_P2;Temp;Humidity;BMP_temperature;BMP_pressure;BME280_temperature;BME280_humidity;BME280_pressure;Samples;Min_cycle;Max_cycle;Signal;HPM_P1;HPM_P2
2023/02/09 00:00:04;;;;;;;;;;;;;;;-10.77;75.14;95315.75;5040274;28;19912;-48
2023/02/09 00:02:29;;;;;;;;;;;;;;;-11.11;74.91;95307.03;5049876;28;20018;-48
2023/02/09 00:04:54;;;;;;;;;;;;;;;-11.26;75.59;95312.59;5049897;28;20396;-48
2023/02/09 00:07:20;;;;;;;;;;;;;;;-11.36;75.85;95322.00;5049161;28;19975;-48
2023/02/09 00:09:45;;;;;;;;;;;;;;;-11.45;76.08;95321.50;5049309;28;19913;-48
2023/02/09 00:14:54;;;;;;;;;;;;;;;-11.49;76.94;95320.69;5049504;28;19994;-49
2023/02/09 00:17:19;;;;;;;;;;;;;;;-11.52;76.74;95316.13;5049134;28;19913;-52
2023/02/09 00:19:45;;;;;;;;;;;;;;;-11.30;77.19;95314.47;5049459;28;19952;-49
2023/02/09 00:22:10;;;;;;;;;;;;;;;-11.08;75.59;95313.53;5049480;28;19912;-49
2023/02/09 00:24:35;;;;;;;;;;;;;;;-11.21;75.37;95309.59;5049419;28;20602;-50
2023/02/09 00:27:01;;;;;;;;;;;;;;;-11.17;75.06;95311.16;5038078;28;19913;-49
2023/02/09 00:29:26;;;;;;;;;;;;;;;-11.51;74.74;95319.53;5048407;28;20465;-49
2023/02/09 00:31:51;;;;;;;;;;;;;;;-11.59;75.00;95317.91;5039226;28;19928;-49
2023/02/09 00:34:17;;;;;;;;;;;;;;;-11.77;76.18;95310.50;5029430;28;20463;-49
2023/02/09 00:36:43;;;;;;;;;;;;;;;-11.68;76.42;95320.88;5029398;28;19917;-50
2023/02/09 00:39:08;;;;;;;;;;;;;;;-11.67;76.43;95320.50;5028681;28;20657;-50
2023/02/09 00:44:17;;;;;;;;;;;;;;;-11.61;75.97;95310.28;5029417;28;19990;-47
2023/02/09 00:46:42;;;;;;;;;;;;;;;-11.62;75.69;95308.75;5029187;28;20404;-48
2023/02/09 00:49:08;;;;;;;;;;;;;;;-11.73;76.46;95310.53;5028499;28;19928;-50
2023/02/09 00:51:33;;;;;;;;;;;;;;;-11.94;76.65;95302.28;5028412;28;19974;-49
2023/02/09 00:53:58;;;;;;;;;;;;;;;-11.84;76.31;95297.09;5029298;28;19940;-50
2023/02/09 00:56:24;;;;;;;;;;;;;;;-11.80;76.56;95305.13;5028900;28;19967;-52
2023/02/09 00:58:49;;;;;;;;;;;;;;;-11.96;76.74;95304.53;5030469;28;20035;-49
2023/02/09 01:01:14;;;;;;;;;;;;;;;-12.30;76.87;95305.59;5048413;28;20301;-49
2023/02/09 01:03:40;;;;;;;;;;;;;;;-12.22;77.16;95294.69;5048965;28;20067;-48
2023/02/09 01:06:05;;;;;;;;;;;;;;;-12.11;76.78;95286.84;5048378;28;19927;-49
2023/02/09 01:08:30;;;;;;;;;;;;;;;-12.07;75.39;95293.75;5048386;28;20289;-50
2023/02/09 01:10:56;;;;;;;;;;;;;;;-12.11;75.59;95295.59;5048019;28;19931;-50
2023/02/09 01:13:21;;;;;;;;;;;;;;;-11.87;76.20;95291.72;5048416;28;20676;-49
2023/02/09 01:15:46;;;;;;;;;;;;;;;-11.80;75.83;95289.16;5048562;28;19932;-49
2023/02/09 01:18:11;;;;;;;;;;;;;;;-12.20;74.76;95287.09;5047976;28;20447;-49
2023/02/09 01:20:39;;;;;;;;;;;;;;;-12.12;74.59;95285.28;5048201;28;19917;-49
2023/02/09 01:23:04;;;;;;;;;;;;;;;-12.21;73.99;95282.91;5048442;28;19916;-48
2023/02/09 01:25:29;;;;;;;;;;;;;;;-12.21;75.14;95282.16;5048220;28;20308;-49
2023/02/09 01:27:54;;;;;;;;;;;;;;;-12.28;75.46;95280.16;5036295;28;19964;-50
2023/02/09 01:30:20;;;;;;;;;;;;;;;-12.27;75.83;95275.56;5047877;28;19923;-49
2023/02/09 01:32:45;;;;;;;;;;;;;;;-12.61;75.22;95278.16;5030774;28;20026;-48
2023/02/09 01:35:10;;;;;;;;;;;;;;;-12.60;75.75;95277.00;5028743;28;19924;-49
2023/02/09 01:37:36;;;;;;;;;;;;;;;-12.53;76.26;95273.69;5027893;28;19917;-49
2023/02/09 01:40:01;;;;;;;;;;;;;;;-12.63;76.42;95269.00;5027757;28;19996;-48
2023/02/09 01:42:26;;;;;;;;;;;;;;;-12.66;76.12;95269.69;5033890;28;19963;-49
2023/02/09 01:45:19;;;;;;;;;;;;;;;-12.51;76.14;95266.13;5048085;28;19917;-49
2023/02/09 01:47:46;;;;;;;;;;;;;;;-12.37;75.80;95263.69;5012154;28;19945;-48
2023/02/09 01:50:11;;;;;;;;;;;;;;;-12.39;75.84;95260.59;5026501;28;19917;-49
2023/02/09 01:52:36;;;;;;;;;;;;;;;-12.08;76.27;95262.91;5026164;28;20444;-48
2023/02/09 01:55:03;;;;;;;;;;;;;;;-12.47;74.83;95257.06;5026463;28;19920;-49
2023/02/09 01:57:33;;;;;;;;;;;;;;;-12.39;75.38;95262.50;5027992;28;20008;-49
2023/02/09 02:00:05;;;;;;;;;;;;;;;-12.30;75.71;95260.34;5026552;28;19917;-49
2023/02/09 02:02:30;;;;;;;;;;;;;;;-12.43;76.48;95257.88;5026417;28;19917;-50
2023/02/09 02:04:55;;;;;;;;;;;;;;;-12.58;76.08;95258.81;5027512;28;19927;-48
2023/02/09 02:07:24;;;;;;;;;;;;;;;-12.56;76.55;95259.22;5027752;28;19979;-48
2023/02/09 02:09:49;;;;;;;;;;;;;;;-12.37;76.73;95252.25;5026584;28;19944;-49
2023/02/09 02:12:14;;;;;;;;;;;;;;;-12.36;76.54;95261.78;5026056;28;20593;-48
2023/02/09 02:14:39;;;;;;;;;;;;;;;-12.41;75.61;95255.63;5026306;28;19925;-49
2023/02/09 02:17:21;;;;;;;;;;;;;;;-12.78;75.21;95265.34;5028092;28;19916;-48
2023/02/09 02:19:58;;;;;;;;;;;;;;;-13.01;75.67;95256.59;5027614;28;19921;-48
2023/02/09 02:22:32;;;;;;;;;;;;;;;-12.89;76.28;95253.00;5028241;28;19928;-48
2023/02/09 02:25:03;;;;;;;;;;;;;;;-12.92;76.70;95251.03;5031261;28;19923;-51
2023/02/09 02:27:35;;;;;;;;;;;;;;;-12.68;76.44;95256.75;5030571;28;19917;-49
2023/02/09 02:30:19;;;;;;;;;;;;;;;-12.99;76.31;95248.28;5031340;28;20022;-50
2023/02/09 02:32:47;;;;;;;;;;;;;;;-13.34;76.76;95245.84;5043579;28;20312;-48
2023/02/09 02:35:25;;;;;;;;;;;;;;;-12.97;76.42;95249.44;5031215;28;20055;-49
2023/02/09 02:37:53;;;;;;;;;;;;;;;-13.05;75.87;95247.06;5030395;28;19924;-49
2023/02/09 02:40:51;;;;;;;;;;;;;;;-13.02;77.10;95241.78;5029879;28;19921;-49
2023/02/09 02:43:24;;;;;;;;;;;;;;;-12.78;76.66;95244.09;5020405;28;19917;-48
2023/02/09 02:45:52;;;;;;;;;;;;;;;-12.73;75.45;95237.69;5049851;28;19924;-48
2023/02/09 02:48:37;;;;;;;;;;;;;;;-13.02;75.74;95238.38;5049944;28;19921;-49
2023/02/09 02:51:25;;;;;;;;;;;;;;;-13.00;76.12;95236.13;5051180;28;19927;-49
2023/02/09 02:53:52;;;;;;;;;;;;;;;-12.82;75.41;95242.50;5049834;28;19948;-49
2023/02/09 02:56:19;;;;;;;;;;;;;;;-12.76;74.53;95239.16;5049494;28;19921;-50
2023/02/09 02:58:44;;;;;;;;;;;;;;;-12.96;75.25;95232.38;5046625;28;20016;-49
2023/02/09 03:01:10;;;;;;;;;;;;;;;-13.18;76.17;95230.53;5029707;28;20004;-49
2023/02/09 03:03:35;;;;;;;;;;;;;;;-13.16;76.89;95225.63;5029284;28;20403;-49
2023/02/09 03:06:01;;;;;;;;;;;;;;;-12.97;75.66;95227.44;5029102;28;19921;-49
2023/02/09 03:08:27;;;;;;;;;;;;;;;-12.96;76.20;95221.75;5029727;28;19921;-50
2023/02/09 03:10:52;;;;;;;;;;;;;;;-12.87;75.43;95213.53;5030496;28;19955;-49
2023/02/09 03:13:33;;;;;;;;;;;;;;;-12.76;75.66;95225.09;5029333;28;19917;-49
2023/02/09 03:16:04;;;;;;;;;;;;;;;-13.17;75.71;95226.00;5030632;28;19991;-49
2023/02/09 03:18:32;;;;;;;;;;;;;;;-13.23;76.16;95218.31;5030715;28;20456;-49
2023/02/09 03:21:05;;;;;;;;;;;;;;;-13.13;75.88;95229.47;5030738;28;20297;-51
2023/02/09 03:23:33;;;;;;;;;;;;;;;-13.16;76.64;95215.00;5029510;28;19924;-49
2023/02/09 03:26:00;;;;;;;;;;;;;;;-13.26;76.45;95211.06;5030361;28;19917;-50
2023/02/09 03:28:29;;;;;;;;;;;;;;;-13.52;77.11;95211.00;5037052;28;19921;-50
2023/02/09 03:30:55;;;;;;;;;;;;;;;-13.51;77.29;95201.16;5030618;28;19929;-50
2023/02/09 03:33:22;;;;;;;;;;;;;;;-13.44;76.12;95211.88;5034940;28;20328;-52
2023/02/09 03:35:51;;;;;;;;;;;;;;;-13.46;76.20;95208.81;5028715;28;20601;-49
2023/02/09 03:38:16;;;;;;;;;;;;;;;-13.21;76.83;95207.34;5029051;28;19917;-49
2023/02/09 03:40:42;;;;;;;;;;;;;;;-13.21;76.31;95212.66;5030327;28;20460;-49
2023/02/09 03:43:07;;;;;;;;;;;;;;;-12.96;76.22;95213.78;5030390;28;19917;-49
2023/02/09 03:45:32;;;;;;;;;;;;;;;-12.86;76.16;95215.09;5030153;28;20008;-50
2023/02/09 03:47:57;;;;;;;;;;;;;;;-12.97;75.41;95204.25;5030149;28;19934;-49
2023/02/09 03:50:23;;;;;;;;;;;;;;;-13.00;74.94;95209.53;5030048;28;19987;-51
2023/02/09 03:52:49;;;;;;;;;;;;;;;-13.38;74.99;95205.16;5030037;28;19924;-50
2023/02/09 03:55:14;;;;;;;;;;;;;;;-13.53;75.31;95211.34;5030020;28;20012;-52
2023/02/09 03:57:40;;;;;;;;;;;;;;;-13.62;75.67;95216.13;5029857;28;19999;-49
2023/02/09 04:00:06;;;;;;;;;;;;;;;-13.52;75.94;95207.56;5029952;28;20007;-50
2023/02/09 04:02:31;;;;;;;;;;;;;;;-13.44;75.09;95210.00;5029566;28;19921;-49
2023/02/09 04:04:56;;;;;;;;;;;;;;;-13.50;75.68;95210.63;5029394;28;19917;-49
2023/02/09 04:07:21;;;;;;;;;;;;;;;-13.70;75.32;95217.88;5029401;28;19926;-50
2023/02/09 04:09:47;;;;;;;;;;;;;;;-13.71;74.99;95211.03;5029609;28;20404;-49
2023/02/09 04:12:12;;;;;;;;;;;;;;;-13.79;75.71;95208.63;5029655;28;19917;-49
2023/02/09 04:14:37;;;;;;;;;;;;;;;-13.79;75.77;95213.91;5029675;28;19917;-49
2023/02/09 04:17:02;;;;;;;;;;;;;;;-13.71;75.92;95212.91;5029377;28;20408;-49
2023/02/09 04:19:28;;;;;;;;;;;;;;;-13.49;75.31;95215.59;5029623;28;19923;-49
2023/02/09 04:21:53;;;;;;;;;;;;;;;-13.36;74.53;95221.53;5029953;28;19923;-49
2023/02/09 04:24:20;;;;;;;;;;;;;;;-13.50;74.80;95224.69;5029153;28;20315;-50
2023/02/09 04:26:45;;;;;;;;;;;;;;;-13.72;75.52;95216.69;5029114;28;19917;-49
2023/02/09 04:29:10;;;;;;;;;;;;;;;-13.87;75.14;95220.19;5029081;28;20009;-49
2023/02/09 04:31:36;;;;;;;;;;;;;;;-13.75;75.49;95217.41;5036961;28;20221;-50
2023/02/09 04:34:01;;;;;;;;;;;;;;;-13.60;75.13;95219.97;5034142;28;19935;-51
2023/02/09 04:36:26;;;;;;;;;;;;;;;-13.63;74.84;95214.59;5029189;28;19917;-48
2023/02/09 04:38:51;;;;;;;;;;;;;;;-13.68;75.35;95215.63;5029629;28;20039;-48
2023/02/09 04:41:17;;;;;;;;;;;;;;;-13.87;76.21;95222.84;5049277;28;20015;-49
2023/02/09 04:43:42;;;;;;;;;;;;;;;-13.84;77.38;95220.28;5032401;28;20366;-49
2023/02/09 04:46:11;;;;;;;;;;;;;;;-13.78;76.63;95218.88;5027834;28;19917;-52
2023/02/09 04:48:36;;;;;;;;;;;;;;;-14.01;76.89;95216.16;5029058;28;20117;-49
2023/02/09 04:51:02;;;;;;;;;;;;;;;-13.94;76.23;95217.44;5028692;28;19921;-49
2023/02/09 04:53:28;;;;;;;;;;;;;;;-13.79;75.52;95213.91;5028656;28;20409;-50
2023/02/09 04:55:53;;;;;;;;;;;;;;;-13.87;74.71;95210.34;5028692;28;19917;-49
2023/02/09 05:01:02;;;;;;;;;;;;;;;-14.02;76.27;95213.84;5028644;28;19920;-49
2023/02/09 05:03:28;;;;;;;;;;;;;;;-14.08;76.65;95224.00;5028194;28;19913;-49
2023/02/09 05:05:54;;;;;;;;;;;;;;;-13.74;75.66;95224.22;5028268;28;19925;-50
2023/02/09 05:08:19;;;;;;;;;;;;;;;-13.80;76.46;95220.34;5028841;28;20044;-50
2023/02/09 05:10:45;;;;;;;;;;;;;;;-13.70;75.67;95225.06;5028280;28;20524;-49
2023/02/09 05:13:10;;;;;;;;;;;;;;;-13.78;75.73;95224.19;5028557;28;19917;-49
2023/02/09 05:15:35;;;;;;;;;;;;;;;-13.74;76.12;95224.22;5028527;28;19936;-48
2023/02/09 05:18:00;;;;;;;;;;;;;;;-13.61;75.41;95221.06;5028560;28;19917;-49
2023/02/09 05:20:26;;;;;;;;;;;;;;;-13.71;74.62;95216.34;5027892;28;20456;-50
2023/02/09 05:22:51;;;;;;;;;;;;;;;-13.79;74.79;95219.97;5028558;28;20011;-50
2023/02/09 05:25:16;;;;;;;;;;;;;;;-13.73;74.39;95229.22;5028478;28;19925;-49
2023/02/09 05:27:42;;;;;;;;;;;;;;;-13.76;74.08;95221.16;5011330;28;19918;-48
2023/02/09 05:30:07;;;;;;;;;;;;;;;-13.77;73.95;95227.59;5008633;28;19925;-50
2023/02/09 05:32:33;;;;;;;;;;;;;;;-14.08;74.72;95228.53;5007715;28;19921;-49
2023/02/09 05:34:58;;;;;;;;;;;;;;;-14.20;74.70;95231.31;5008309;28;19918;-48
2023/02/09 05:37:23;;;;;;;;;;;;;;;-14.17;75.68;95234.03;5027489;28;19991;-48
2023/02/09 05:39:49;;;;;;;;;;;;;;;-14.17;76.22;95235.94;5028152;28;20321;-49
2023/02/09 05:42:15;;;;;;;;;;;;;;;-13.98;76.84;95231.38;5023623;28;19917;-49
2023/02/09 05:44:47;;;;;;;;;;;;;;;-14.03;76.72;95220.28;5008191;28;19924;-50
2023/02/09 05:47:14;;;;;;;;;;;;;;;-14.07;76.12;95222.09;5008128;28;19925;-50
2023/02/09 05:49:39;;;;;;;;;;;;;;;-13.95;75.51;95234.47;5008487;28;19983;-49
2023/02/09 05:52:04;;;;;;;;;;;;;;;-13.75;75.31;95236.72;5007824;28;19925;-49
2023/02/09 05:54:30;;;;;;;;;;;;;;;-13.60;75.76;95237.78;5007954;28;19939;-49
2023/02/09 05:56:55;;;;;;;;;;;;;;;-13.51;74.96;95238.34;5008395;28;19924;-50
2023/02/09 05:59:20;;;;;;;;;;;;;;;-13.46;73.43;95244.13;5007886;28;20644;-50
2023/02/09 06:01:45;;;;;;;;;;;;;;;-13.31;72.44;95248.56;5007976;28;19925;-48
2023/02/09 06:04:11;;;;;;;;;;;;;;;-13.31;73.10;95240.59;5008167;28;19917;-50
2023/02/09 06:06:36;;;;;;;;;;;;;;;-13.60;73.87;95238.56;5019479;28;19937;-51
2023/02/09 06:09:02;;;;;;;;;;;;;;;-13.65;74.66;95240.72;5027487;28;19913;-50
2023/02/09 06:11:27;;;;;;;;;;;;;;;-13.28;74.79;95250.50;5027846;28;19919;-49
2023/02/09 06:13:52;;;;;;;;;;;;;;;-13.54;75.42;95247.00;5027650;28;20329;-51
2023/02/09 06:16:18;;;;;;;;;;;;;;;-13.77;74.94;95246.94;5027343;28;20413;-50
2023/02/09 06:18:43;;;;;;;;;;;;;;;-13.71;75.38;95242.13;5027719;28;19913;-50
2023/02/09 06:21:10;;;;;;;;;;;;;;;-13.71;75.75;95252.75;5027703;28;20444;-48
2023/02/09 06:23:35;;;;;;;;;;;;;;;-13.42;75.31;95252.91;5027255;28;19924;-49
2023/02/09 06:26:04;;;;;;;;;;;;;;;-13.19;73.69;95244.19;5030283;28;20019;-49
2023/02/09 06:28:29;;;;;;;;;;;;;;;-12.97;73.41;95246.03;5035192;28;19917;-49
2023/02/09 06:30:55;;;;;;;;;;;;;;;-12.83;74.49;95249.69;5027017;28;20036;-50
2023/02/09 06:33:20;;;;;;;;;;;;;;;-12.96;74.31;95245.69;5034454;28;19924;-49
2023/02/09 06:35:45;;;;;;;;;;;;;;;-12.55;73.59;95244.03;5027514;28;19913;-50
2023/02/09 06:38:11;;;;;;;;;;;;;;;-12.71;72.98;95240.75;5027166;28;19924;-50
2023/02/09 06:40:36;;;;;;;;;;;;;;;-12.42;72.98;95238.13;5027067;28;19987;-50
2023/02/09 06:43:01;;;;;;;;;;;;;;;-12.10;73.16;95238.56;5027265;28;19920;-49
2023/02/09 06:45:27;;;;;;;;;;;;;;;-11.96;73.69;95237.97;5027238;28;19929;-50
2023/02/09 06:47:52;;;;;;;;;;;;;;;-11.80;74.89;95225.97;5027170;28;19917;-50
2023/02/09 06:50:17;;;;;;;;;;;;;;;-11.57;74.88;95223.16;5026894;28;19924;-49
2023/02/09 06:52:43;;;;;;;;;;;;;;;-11.52;75.35;95214.84;5027471;28;19957;-49
2023/02/09 06:55:08;;;;;;;;;;;;;;;-11.30;76.31;95219.25;5027061;28;19917;-49
2023/02/09 06:57:34;;;;;;;;;;;;;;;-10.90;76.40;95216.56;5027187;28;19913;-49
2023/02/09 06:59:59;;;;;;;;;;;;;;;-10.33;75.76;95212.34;5038988;28;20673;-48
2023/02/09 07:02:24;;;;;;;;;;;;;;;-9.72;75.01;95216.06;5046668;28;19923;-50
2023/02/09 07:04:49;;;;;;;;;;;;;;;-9.25;74.37;95210.47;5047161;28;19917;-50
2023/02/09 07:07:15;;;;;;;;;;;;;;;-8.38;70.52;95225.00;5046563;28;19972;-50
2023/02/09 07:09:40;;;;;;;;;;;;;;;-7.29;68.95;95223.88;5049214;28;19917;-50
2023/02/09 07:12:05;;;;;;;;;;;;;;;-6.45;63.39;95230.59;5050779;28;19917;-50
2023/02/09 07:14:31;;;;;;;;;;;;;;;-5.39;61.10;95216.78;5050578;28;20392;-50
2023/02/09 07:16:56;;;;;;;;;;;;;;;-4.09;57.75;95217.53;5050408;28;19994;-50
2023/02/09 07:19:21;;;;;;;;;;;;;;;-2.43;53.33;95209.50;5050738;28;19916;-50
2023/02/09 07:21:47;;;;;;;;;;;;;;;0.01;48.35;95211.50;5050478;28;19921;-49
2023/02/09 07:24:13;;;;;;;;;;;;;;;1.54;42.61;95205.63;5050372;28;20694;-51
2023/02/09 07:26:38;;;;;;;;;;;;;;;3.44;39.95;95197.53;5042558;28;19913;-50
2023/02/09 07:29:03;;;;;;;;;;;;;;;4.43;38.36;95199.00;5033779;28;20385;-51
2023/02/09 07:31:29;;;;;;;;;;;;;;;5.80;35.12;95206.66;5029828;28;19917;-50
2023/02/09 07:33:55;;;;;;;;;;;;;;;6.13;32.37;95205.19;5030371;28;20010;-49
2023/02/09 07:36:21;;;;;;;;;;;;;;;7.05;31.13;95191.59;5029869;28;19917;-51
2023/02/09 07:38:47;;;;;;;;;;;;;;;6.03;32.16;95203.81;5030349;28;20014;-50
2023/02/09 07:41:16;;;;;;;;;;;;;;;6.77;30.47;95207.03;5030098;28;20396;-49
2023/02/09 07:43:42;;;;;;;;;;;;;;;5.96;32.33;95201.47;5046137;28;20656;-50
2023/02/09 07:46:07;;;;;;;;;;;;;;;3.89;34.12;95195.81;5050095;28;19951;-50
2023/02/09 07:48:32;;;;;;;;;;;;;;;5.96;31.49;95190.50;5050144;28;19916;-50
2023/02/09 07:50:58;;;;;;;;;;;;;;;6.94;29.83;95196.22;5049815;28;19939;-51
2023/02/09 07:53:23;;;;;;;;;;;;;;;7.98;29.58;95184.66;5049526;28;19917;-50
2023/02/09 07:55:48;;;;;;;;;;;;;;;9.16;28.64;95185.47;5049700;28;20007;-51
2023/02/09 07:58:17;;;;;;;;;;;;;;;8.47;26.79;95181.47;5043355;28;19964;-52
2023/02/09 08:00:42;;;;;;;;;;;;;;;7.84;27.95;95185.56;5047262;28;19924;-51
2023/02/09 08:03:07;;;;;;;;;;;;;;;8.78;27.53;95186.88;5049996;28;19913;-50
2023/02/09 08:05:45;;;;;;;;;;;;;;;9.30;26.94;95181.00;5047924;28;19932;-50
2023/02/09 08:08:10;;;;;;;;;;;;;;;9.65;27.30;95182.06;5049220;28;19916;-50
2023/02/09 08:10:36;;;;;;;;;;;;;;;10.60;25.51;95186.22;5049753;28;19916;-50
2023/02/09 08:13:02;;;;;;;;;;;;;;;9.93;25.98;95187.56;5049630;28;20296;-50
2023/02/09 08:15:29;;;;;;;;;;;;;;;10.29;25.37;95180.25;5049453;28;19924;-49
2023/02/09 08:17:55;;;;;;;;;;;;;;;10.81;24.85;95183.88;5048517;28;19923;-49
2023/02/09 08:20:21;;;;;;;;;;;;;;;7.28;27.76;95185.09;5048195;28;19917;-49
2023/02/09 08:22:48;;;;;;;;;;;;;;;8.55;26.69;95179.00;5048048;28;19924;-50
2023/02/09 08:25:13;;;;;;;;;;;;;;;7.98;26.92;95182.66;5049538;28;19913;-50
2023/02/09 08:27:39;;;;;;;;;;;;;;;9.08;26.77;95190.72;5037506;28;20403;-50
2023/02/09 08:30:04;;;;;;;;;;;;;;;10.09;25.68;95189.53;5049337;28;19917;-50
2023/02/09 08:32:29;;;;;;;;;;;;;;;10.03;27.35;95191.56;5045775;28;19993;-53
2023/02/09 08:34:55;;;;;;;;;;;;;;;9.98;26.48;95183.31;5029141;28;19917;-50
2023/02/09 08:37:20;;;;;;;;;;;;;;;10.55;25.08;95189.75;5029121;28;20669;-50
2023/02/09 08:39:45;;;;;;;;;;;;;;;10.66;25.04;95186.94;5029023;28;19924;-50
2023/02/09 08:42:10;;;;;;;;;;;;;;;9.99;26.07;95188.31;5032361;28;20003;-49
2023/02/09 08:44:36;;;;;;;;;;;;;;;11.18;24.17;95191.75;5048812;28;19917;-51
2023/02/09 08:47:01;;;;;;;;;;;;;;;9.66;26.37;95191.81;5048636;28;19916;-51
2023/02/09 08:49:26;;;;;;;;;;;;;;;9.93;26.03;95190.31;5048806;28;19974;-50
2023/02/09 08:51:52;;;;;;;;;;;;;;;9.37;26.66;95183.28;5048890;28;19921;-50
2023/02/09 08:54:17;;;;;;;;;;;;;;;10.53;25.78;95183.97;5048615;28;19912;-50
2023/02/09 08:56:43;;;;;;;;;;;;;;;10.27;26.45;95182.78;5048219;28;20003;-50
2023/02/09 08:59:08;;;;;;;;;;;;;;;9.08;27.93;95189.97;5039832;28;19912;-49
2023/02/09 09:01:33;;;;;;;;;;;;;;;9.81;26.31;95192.31;5048280;28;19917;-50
2023/02/09 09:03:58;;;;;;;;;;;;;;;10.03;26.60;95186.03;5048355;28;19917;-52
2023/02/09 09:06:24;;;;;;;;;;;;;;;11.04;25.17;95188.06;5048250;28;19932;-50
2023/02/09 09:08:50;;;;;;;;;;;;;;;12.16;24.03;95188.81;5048346;28;19916;-51
2023/02/09 09:11:16;;;;;;;;;;;;;;;10.98;25.36;95200.41;5048238;28;20438;-50
2023/02/09 09:13:41;;;;;;;;;;;;;;;10.33;25.06;95194.59;5048261;28;19952;-51
2023/02/09 09:16:11;;;;;;;;;;;;;;;8.70;26.57;95194.13;5048157;28;19924;-50
2023/02/09 09:18:37;;;;;;;;;;;;;;;9.03;26.95;95187.97;5048555;28;20388;-51
2023/02/09 09:21:02;;;;;;;;;;;;;;;8.56;28.46;95186.78;5047997;28;19917;-50
2023/02/09 09:23:27;;;;;;;;;;;;;;;8.55;28.58;95190.78;5048335;28;19943;-49
2023/02/09 09:25:53;;;;;;;;;;;;;;;7.99;28.79;95189.66;5032390;28;20387;-49
2023/02/09 09:28:18;;;;;;;;;;;;;;;7.86;29.20;95186.56;5037647;28;19924;-53
2023/02/09 09:30:43;;;;;;;;;;;;;;;8.49;28.81;95181.72;5028313;28;19921;-50
2023/02/09 09:33:08;;;;;;;;;;;;;;;8.87;28.27;95174.88;5040140;28;20387;-50
2023/02/09 09:35:34;;;;;;;;;;;;;;;8.28;28.58;95177.63;5027712;28;20459;-49
2023/02/09 09:38:00;;;;;;;;;;;;;;;8.32;28.47;95176.16;5028355;28;19916;-53
2023/02/09 09:40:29;;;;;;;;;;;;;;;7.52;30.34;95177.31;5028186;28;19928;-52
2023/02/09 09:42:56;;;;;;;;;;;;;;;6.98;30.04;95181.03;5036389;28;19921;-50
2023/02/09 09:45:22;;;;;;;;;;;;;;;7.96;29.77;95171.41;5046787;28;19994;-50
2023/02/09 09:47:47;;;;;;;;;;;;;;;9.02;28.20;95165.16;5046663;28;19928;-50
2023/02/09 09:50:33;;;;;;;;;;;;;;;8.31;29.06;95171.16;5047577;28;20007;-50
2023/02/09 09:53:01;;;;;;;;;;;;;;;6.88;31.33;95176.94;5047365;28;19974;-50
2023/02/09 09:55:29;;;;;;;;;;;;;;;9.08;28.87;95160.41;5047502;28;19960;-49
2023/02/09 09:57:55;;;;;;;;;;;;;;;8.29;29.67;95160.59;5044416;28;20396;-51
2023/02/09 10:00:22;;;;;;;;;;;;;;;8.16;29.13;95165.03;5042078;28;19960;-49
2023/02/09 10:02:47;;;;;;;;;;;;;;;8.59;29.25;95163.78;5047491;28;20319;-49
2023/02/09 10:05:12;;;;;;;;;;;;;;;8.28;28.97;95169.38;5047052;28;19913;-49
2023/02/09 10:07:38;;;;;;;;;;;;;;;8.43;30.45;95163.69;5047782;28;19920;-50
2023/02/09 10:10:11;;;;;;;;;;;;;;;8.06;30.14;95155.44;5047781;28;19966;-50
2023/02/09 10:12:37;;;;;;;;;;;;;;;9.21;29.26;95157.19;5047387;28;19921;-50
2023/02/09 10:15:22;;;;;;;;;;;;;;;9.34;27.54;95159.44;5047451;28;20662;-51
2023/02/09 10:17:47;;;;;;;;;;;;;;;8.63;28.46;95147.00;5047674;28;19928;-50
2023/02/09 10:20:13;;;;;;;;;;;;;;;7.59;29.91;95152.16;5045791;28;19917;-48
2023/02/09 10:22:38;;;;;;;;;;;;;;;7.06;31.66;95143.66;5028034;28;19962;-49
2023/02/09 10:25:05;;;;;;;;;;;;;;;6.89;31.57;95154.50;5026545;28;19914;-49
2023/02/09 10:27:31;;;;;;;;;;;;;;;7.20;31.05;95153.81;5039176;28;19913;-48
2023/02/09 10:30:22;;;;;;;;;;;;;;;7.33;31.64;95145.94;5027709;28;19970;-48
2023/02/09 10:32:48;;;;;;;;;;;;;;;7.70;30.41;95154.22;5025014;28;19928;-50
2023/02/09 10:35:27;;;;;;;;;;;;;;;7.19;32.70;95159.78;5027946;28;19921;-50
2023/02/09 10:38:00;;;;;;;;;;;;;;;7.82;30.69;95152.31;5027910;28;19948;-50
2023/02/09 10:40:34;;;;;;;;;;;;;;;8.11;30.05;95152.75;5027154;28;19917;-52
2023/02/09 10:43:00;;;;;;;;;;;;;;;7.92;30.41;95148.13;5036834;28;19943;-49
2023/02/09 10:45:37;;;;;;;;;;;;;;;8.32;30.06;95150.63;5051467;28;19916;-49
2023/02/09 10:48:12;;;;;;;;;;;;;;;8.30;29.96;95150.38;5051273;28;19917;-49
2023/02/09 10:50:59;;;;;;;;;;;;;;;6.73;31.44;95163.31;5050991;28;19920;-49
2023/02/09 10:53:29;;;;;;;;;;;;;;;6.53;32.00;95155.09;5050969;28;20515;-49
2023/02/09 10:56:02;;;;;;;;;;;;;;;6.23;32.92;95152.97;5050831;28;19955;-50
2023/02/09 10:58:28;;;;;;;;;;;;;;;6.68;32.06;95158.50;5043143;28;20359;-49
2023/02/09 11:01:12;;;;;;;;;;;;;;;7.54;32.04;95163.06;5049569;28;19924;-49
2023/02/09 11:03:45;;;;;;;;;;;;;;;7.46;31.25;95153.78;5051178;28;20312;-51
2023/02/09 11:06:18;;;;;;;;;;;;;;;6.59;32.45;95142.19;5049046;28;20408;-50
2023/02/09 11:08:47;;;;;;;;;;;;;;;6.51;33.43;95154.06;5050797;28;19959;-48
2023/02/09 11:11:28;;;;;;;;;;;;;;;7.38;32.08;95144.47;5050519;28;19986;-50
2023/02/09 11:13:53;;;;;;;;;;;;;;;7.84;31.13;95145.06;5050584;28;19923;-49
2023/02/09 11:16:21;;;;;;;;;;;;;;;6.77;33.03;95139.16;5050270;28;19913;-49
2023/02/09 11:18:51;;;;;;;;;;;;;;;7.39;32.44;95129.47;5030865;28;19913;-48
2023/02/09 11:21:37;;;;;;;;;;;;;;;6.15;33.77;95144.38;5030112;28;19960;-49
2023/02/09 11:24:23;;;;;;;;;;;;;;;8.30;31.24;95125.59;5030900;28;19940;-48
2023/02/09 11:26:57;;;;;;;;;;;;;;;8.49;30.51;95123.91;4998915;28;19917;-48
2023/02/09 11:29:34;;;;;;;;;;;;;;;7.96;31.41;95124.66;5044602;28;20701;-48
2023/02/09 11:31:59;;;;;;;;;;;;;;;7.72;30.78;95127.00;5040840;28;19924;-50
2023/02/09 11:34:28;;;;;;;;;;;;;;;6.82;32.78;95123.97;5031441;28;20368;-48
2023/02/09 11:37:02;;;;;;;;;;;;;;;6.28;33.70;95125.59;5030309;28;19917;-49
2023/02/09 11:39:46;;;;;;;;;;;;;;;7.13;32.52;95121.28;5030059;28;19917;-49
2023/02/09 11:45:03;;;;;;;;;;;;;;;7.68;32.41;95120.97;5048973;28;19963;-49
2023/02/09 11:47:35;;;;;;;;;;;;;;;6.98;32.87;95115.13;5049696;28;20641;-49
2023/02/09 11:50:01;;;;;;;;;;;;;;;7.71;31.86;95108.97;5048314;28;20373;-49
2023/02/09 11:52:34;;;;;;;;;;;;;;;7.22;32.17;95112.88;5049534;28;20019;-49
2023/02/09 11:55:01;;;;;;;;;;;;;;;8.27;31.89;95104.59;5049312;28;20460;-50
2023/02/09 11:57:30;;;;;;;;;;;;;;;7.54;31.72;95103.38;5048555;28;19920;-50
2023/02/09 11:59:56;;;;;;;;;;;;;;;7.30;32.53;95105.69;5037444;28;19948;-49
2023/02/09 12:02:40;;;;;;;;;;;;;;;7.13;32.92;95099.28;5029520;28;19917;-49
2023/02/09 12:05:07;;;;;;;;;;;;;;;6.79;33.31;95108.47;5029847;28;19914;-48
2023/02/09 12:07:35;;;;;;;;;;;;;;;5.72;34.70;95104.91;5028120;28;20035;-48
2023/02/09 12:10:21;;;;;;;;;;;;;;;6.13;34.78;95091.25;5029283;28;20007;-48
2023/02/09 12:12:46;;;;;;;;;;;;;;;6.11;35.36;95086.25;5029233;28;20397;-49
2023/02/09 12:15:30;;;;;;;;;;;;;;;5.32;35.73;95091.88;5029492;28;19913;-49
2023/02/09 12:17:59;;;;;;;;;;;;;;;5.06;36.25;95099.16;5029146;28;19913;-48
2023/02/09 12:20:29;;;;;;;;;;;;;;;5.07;36.79;95086.22;5029471;28;19917;-48
2023/02/09 12:22:55;;;;;;;;;;;;;;;5.27;36.48;95089.03;5029535;28;19929;-48
2023/02/09 12:25:32;;;;;;;;;;;;;;;4.95;36.13;95079.81;5027771;28;19917;-48
2023/02/09 12:28:07;;;;;;;;;;;;;;;4.87;37.16;95075.19;5040865;28;19921;-49
2023/02/09 12:30:41;;;;;;;;;;;;;;;4.17;38.64;95076.91;5029285;28;20313;-49
2023/02/09 12:33:15;;;;;;;;;;;;;;;3.43;39.35;95075.13;5036992;28;19964;-48
2023/02/09 12:35:41;;;;;;;;;;;;;;;3.14;40.50;95069.50;5048823;28;20440;-49
2023/02/09 12:38:12;;;;;;;;;;;;;;;3.03;41.01;95070.75;5047484;28;19920;-48
2023/02/09 12:40:38;;;;;;;;;;;;;;;3.05;41.37;95067.56;5049154;28;19956;-47
2023/02/09 12:43:10;;;;;;;;;;;;;;;3.10;43.11;95066.91;5048508;28;20021;-48
2023/02/09 12:45:42;;;;;;;;;;;;;;;2.88;41.76;95067.16;5048584;28;19925;-48
2023/02/09 12:48:07;;;;;;;;;;;;;;;3.12;42.41;95063.75;5048929;28;19986;-48
2023/02/09 12:50:34;;;;;;;;;;;;;;;3.80;41.16;95057.28;5048463;28;20684;-50
2023/02/09 12:53:18;;;;;;;;;;;;;;;3.59;42.22;95055.63;5047347;28;19962;-47
2023/02/09 12:56:02;;;;;;;;;;;;;;;3.92;39.88;95055.56;5048439;28;19924;-48
2023/02/09 12:58:42;;;;;;;;;;;;;;;3.08;40.84;95056.47;5040566;28;20299;-47